Time;durP1;ratioP1;P1;durP2;ratioP2;P2;SDS_P1;SDS_P2;PMS_P1;PMS_P2;Temp;Humidity;BMP_temperature;BMP_pressure;BME280_temperature;BME280_humidity;BME280_pressure;Samples;Min_cycle;Max_cycle;Signal;HPM_P1;HPM_P2
2022/07/25 00:01:25;;;;;;;9.10;8.50;;;;;;;;;;5053105;28;20244;-81
2022/07/25 00:03:53;;;;;;;9.23;8.52;;;;;;;;;;5045280;28;20194;-82
2022/07/25 00:06:21;;;;;;;8.70;8.10;;;;;;;;;;5033788;28;20268;-81
2022/07/25 00:08:48;;;;;;;9.70;9.00;;;;;;;;;;5030627;28;20220;-80
2022/07/25 00:11:15;;;;;;;9.70;8.90;;;;;;;;;;5033773;28;20238;-81
2022/07/25 00:13:43;;;;;;;9.98;9.27;;;;;;;;;;5042195;28;20228;-81
2022/07/25 00:16:10;;;;;;;9.93;9.23;;;;;;;;;;5047719;28;20225;-81
2022/07/25 00:18:37;;;;;;;8.82;8.23;;;;;;;;;;5015599;28;20240;-81
2022/07/25 00:21:06;;;;;;;9.85;9.10;;;;;;;;;;5019298;28;20229;-81
2022/07/25 00:23:33;;;;;;;9.30;8.60;;;;;;;;;;5033758;28;20226;-81
2022/07/25 00:26:00;;;;;;;9.73;8.98;;;;;;;;;;5033284;28;20249;-81
2022/07/25 00:28:28;;;;;;;9.18;8.48;;;;;;;;;;5033242;28;20277;-80
2022/07/25 00:30:55;;;;;;;9.88;9.18;;;;;;;;;;5033407;28;20286;-81
2022/07/25 00:33:22;;;;;;;9.43;8.75;;;;;;;;;;5048692;28;20227;-80
2022/07/25 00:35:50;;;;;;;10.02;9.32;;;;;;;;;;5036926;28;20222;-80
2022/07/25 00:38:21;;;;;;;9.38;8.68;;;;;;;;;;5037750;28;20241;-80
2022/07/25 00:40:48;;;;;;;9.38;8.68;;;;;;;;;;5033472;28;20271;-81
2022/07/25 00:43:16;;;;;;;9.60;8.90;;;;;;;;;;5033634;28;20198;-81
2022/07/25 00:45:43;;;;;;;9.45;8.75;;;;;;;;;;5033068;28;20222;-81
2022/07/25 00:48:10;;;;;;;9.77;9.07;;;;;;;;;;5032783;28;20269;-81
2022/07/25 00:50:37;;;;;;;10.13;9.32;;;;;;;;;;5048878;28;20297;-81
2022/07/25 00:53:05;;;;;;;9.63;8.93;;;;;;;;;;5053394;28;20304;-81
2022/07/25 00:55:34;;;;;;;9.57;8.88;;;;;;;;;;5043956;28;20309;-82
2022/07/25 00:58:01;;;;;;;9.65;8.88;;;;;;;;;;5032213;28;20233;-81
2022/07/25 01:00:28;;;;;;;9.68;8.95;;;;;;;;;;5028603;28;20295;-81
2022/07/25 01:02:56;;;;;;;9.63;8.93;;;;;;;;;;5032865;28;20229;-82
2022/07/25 01:05:23;;;;;;;9.88;9.18;;;;;;;;;;5033569;28;20229;-82
2022/07/25 01:07:51;;;;;;;10.18;9.38;;;;;;;;;;5039864;28;20236;-82
2022/07/25 01:10:18;;;;;;;10.30;9.57;;;;;;;;;;5048632;28;20198;-81
2022/07/25 01:12:47;;;;;;;9.70;9.00;;;;;;;;;;5033608;28;20209;-81
2022/07/25 01:15:16;;;;;;;10.15;9.45;;;;;;;;;;5033015;28;20675;-81
2022/07/25 01:17:43;;;;;;;10.52;9.80;;;;;;;;;;5042147;28;20205;-82
2022/07/25 01:20:16;;;;;;;10.48;9.57;;;;;;;;;;5053265;28;20229;-81
2022/07/25 01:22:43;;;;;;;10.10;9.40;;;;;;;;;;5050406;28;20222;-82
2022/07/25 01:25:11;;;;;;;9.95;9.23;;;;;;;;;;5033208;28;20618;-81
2022/07/25 01:27:38;;;;;;;10.05;9.30;;;;;;;;;;5033139;28;20281;-81
2022/07/25 01:30:07;;;;;;;10.10;9.40;;;;;;;;;;5033334;28;20263;-82
2022/07/25 01:32:34;;;;;;;9.85;9.15;;;;;;;;;;5036196;28;20216;-81
2022/07/25 01:35:01;;;;;;;10.10;9.35;;;;;;;;;;5037761;28;20257;-81
2022/07/25 01:37:30;;;;;;;9.77;9.07;;;;;;;;;;5025944;28;20729;-81
2022/07/25 01:39:57;;;;;;;9.60;8.93;;;;;;;;;;5017772;28;20280;-81
2022/07/25 01:42:25;;;;;;;9.98;9.23;;;;;;;;;;5017793;28;20309;-81
2022/07/25 01:44:54;;;;;;;10.15;9.45;;;;;;;;;;5017240;28;20211;-82
2022/07/25 01:47:25;;;;;;;9.82;9.13;;;;;;;;;;5017761;28;20657;-80
2022/07/25 01:49:52;;;;;;;9.98;9.27;;;;;;;;;;5017180;28;20285;-81
2022/07/25 01:52:19;;;;;;;9.50;8.90;;;;;;;;;;5017078;28;20281;-81
2022/07/25 01:54:48;;;;;;;9.68;9.02;;;;;;;;;;5027434;28;20222;-81
2022/07/25 01:57:16;;;;;;;10.10;9.30;;;;;;;;;;5036780;28;20232;-81
2022/07/25 01:59:43;;;;;;;10.07;9.38;;;;;;;;;;5036706;28;20285;-80
2022/07/25 02:02:11;;;;;;;10.40;9.60;;;;;;;;;;5037017;28;20556;-81
2022/07/25 02:04:41;;;;;;;10.13;9.43;;;;;;;;;;5046781;28;20205;-80
2022/07/25 02:07:09;;;;;;;10.10;9.40;;;;;;;;;;5044040;28;20290;-80
2022/07/25 02:09:40;;;;;;;10.35;9.55;;;;;;;;;;5040292;28;20250;-81
2022/07/25 02:12:09;;;;;;;10.50;9.60;;;;;;;;;;5056484;28;20209;-82
2022/07/25 02:14:36;;;;;;;10.85;10.05;;;;;;;;;;5055775;28;20248;-81
2022/07/25 02:17:03;;;;;;;9.68;8.98;;;;;;;;;;5038367;28;20228;-80
2022/07/25 02:19:31;;;;;;;11.02;10.10;;;;;;;;;;5036131;28;20285;-81
2022/07/25 02:21:58;;;;;;;10.65;9.85;;;;;;;;;;5054674;28;20232;-82
2022/07/25 02:24:25;;;;;;;10.55;9.77;;;;;;;;;;5038201;28;20221;-81
2022/07/25 02:26:53;;;;;;;10.18;9.38;;;;;;;;;;5036139;28;20221;-81
2022/07/25 02:29:21;;;;;;;10.15;9.45;;;;;;;;;;5035952;28;20285;-81
2022/07/25 02:31:50;;;;;;;9.63;8.88;;;;;;;;;;5053978;28;20236;-82
2022/07/25 02:34:17;;;;;;;10.40;9.50;;;;;;;;;;5038083;28;20633;-82
2022/07/25 02:36:45;;;;;;;9.98;9.27;;;;;;;;;;5033653;28;20245;-82
2022/07/25 02:39:13;;;;;;;10.20;9.45;;;;;;;;;;5021755;28;20233;-81
2022/07/25 02:41:40;;;;;;;9.65;8.85;;;;;;;;;;5037172;28;20220;-81
2022/07/25 02:44:07;;;;;;;9.93;9.23;;;;;;;;;;5048487;28;20208;-81
2022/07/25 02:46:36;;;;;;;9.75;9.05;;;;;;;;;;5040818;28;20272;-81
2022/07/25 02:49:03;;;;;;;10.02;9.32;;;;;;;;;;5040276;28;20216;-81
2022/07/25 02:51:30;;;;;;;10.15;9.45;;;;;;;;;;5056310;28;20213;-81
2022/07/25 02:53:58;;;;;;;10.23;9.43;;;;;;;;;;5055950;28;20225;-81
2022/07/25 02:56:25;;;;;;;9.73;9.02;;;;;;;;;;5044950;28;20316;-81
2022/07/25 02:58:52;;;;;;;9.80;9.10;;;;;;;;;;5036101;28;20252;-81
2022/07/25 03:01:19;;;;;;;9.93;9.13;;;;;;;;;;5036091;28;20229;-81
2022/07/25 03:03:48;;;;;;;9.98;9.20;;;;;;;;;;5036186;28;20201;-81
2022/07/25 03:06:15;;;;;;;10.52;9.82;;;;;;;;;;5054875;22;20327;-82
2022/07/25 03:08:42;;;;;;;10.02;9.25;;;;;;;;;;5047837;28;20209;-80
2022/07/25 03:11:10;;;;;;;9.80;9.10;;;;;;;;;;5049069;28;20286;-84
2022/07/25 03:13:37;;;;;;;10.13;9.32;;;;;;;;;;5045367;28;20244;-84
2022/07/25 03:16:04;;;;;;;10.75;9.85;;;;;;;;;;5045496;28;20230;-84
2022/07/25 03:18:31;;;;;;;10.52;9.75;;;;;;;;;;5033039;28;20237;-83
2022/07/25 03:21:00;;;;;;;9.73;9.02;;;;;;;;;;5052591;28;20233;-84
2022/07/25 03:23:28;;;;;;;10.05;9.25;;;;;;;;;;5052821;28;20198;-83
2022/07/25 03:25:56;;;;;;;10.20;9.50;;;;;;;;;;5045412;28;20222;-84
2022/07/25 03:28:24;;;;;;;9.93;9.20;;;;;;;;;;5059915;28;20212;-84
2022/07/25 03:30:57;;;;;;;10.15;9.45;;;;;;;;;;5046504;28;20264;-84
2022/07/25 03:33:24;;;;;;;9.77;9.02;;;;;;;;;;5050294;28;20202;-84
2022/07/25 03:35:51;;;;;;;10.18;9.38;;;;;;;;;;5046021;28;20257;-84
2022/07/25 03:38:20;;;;;;;10.10;9.40;;;;;;;;;;5044097;28;20229;-84
2022/07/25 03:40:47;;;;;;;9.93;9.23;;;;;;;;;;5052007;28;20255;-84
2022/07/25 03:43:15;;;;;;;9.40;8.73;;;;;;;;;;5043534;28;20210;-84
2022/07/25 03:45:42;;;;;;;10.23;9.32;;;;;;;;;;5043534;28;20256;-84
2022/07/25 03:48:09;;;;;;;10.18;9.43;;;;;;;;;;5042517;28;20244;-85
2022/07/25 03:50:36;;;;;;;9.45;8.75;;;;;;;;;;5043318;28;20236;-83
2022/07/25 03:53:04;;;;;;;9.88;9.07;;;;;;;;;;5042644;28;20217;-85
2022/07/25 03:55:32;;;;;;;9.60;8.90;;;;;;;;;;5050501;28;20256;-84
2022/07/25 03:58:00;;;;;;;9.93;9.13;;;;;;;;;;5060610;28;20229;-83
2022/07/25 04:00:27;;;;;;;9.60;8.90;;;;;;;;;;5061678;28;20205;-85
2022/07/25 04:02:57;;;;;;;9.65;8.95;;;;;;;;;;5063011;28;20209;-85
2022/07/25 04:05:25;;;;;;;10.60;9.77;;;;;;;;;;5062853;28;20201;-84
2022/07/25 04:07:52;;;;;;;9.90;9.10;;;;;;;;;;5051802;28;20234;-83
2022/07/25 04:10:19;;;;;;;9.90;9.20;;;;;;;;;;5051840;28;20213;-84
2022/07/25 04:12:48;;;;;;;9.77;8.98;;;;;;;;;;5056007;28;20197;-84
2022/07/25 04:15:15;;;;;;;9.98;9.18;;;;;;;;;;5056051;28;20231;-84
2022/07/25 04:17:43;;;;;;;10.32;9.52;;;;;;;;;;5066028;28;20225;-83
2022/07/25 04:20:10;;;;;;;10.43;9.52;;;;;;;;;;5057729;28;20248;-82
2022/07/25 04:22:38;;;;;;;9.68;8.98;;;;;;;;;;5042058;28;20296;-84
2022/07/25 04:25:05;;;;;;;10.13;9.38;;;;;;;;;;5040159;28;20202;-83
2022/07/25 04:27:33;;;;;;;10.95;10.15;;;;;;;;;;5058048;28;20249;-84
2022/07/25 04:30:01;;;;;;;10.55;9.75;;;;;;;;;;5055864;28;20206;-84
2022/07/25 04:32:29;;;;;;;11.05;10.23;;;;;;;;;;5052619;28;20232;-83
2022/07/25 04:34:56;;;;;;;10.07;9.27;;;;;;;;;;5050359;28;20217;-84
2022/07/25 04:37:24;;;;;;;9.65;8.95;;;;;;;;;;5035893;28;20260;-83
2022/07/25 04:39:51;;;;;;;9.60;8.80;;;;;;;;;;5039980;28;20630;-83
2022/07/25 04:42:18;;;;;;;9.30;8.60;;;;;;;;;;5043175;28;20194;-83
2022/07/25 04:44:45;;;;;;;9.80;9.10;;;;;;;;;;5048494;28;20237;-86
2022/07/25 04:47:14;;;;;;;9.88;9.18;;;;;;;;;;5051842;28;20232;-86
2022/07/25 04:49:41;;;;;;;9.68;8.88;;;;;;;;;;5039040;28;20304;-86
2022/07/25 04:52:09;;;;;;;9.48;8.68;;;;;;;;;;5035021;28;20225;-85
2022/07/25 04:54:36;;;;;;;9.75;8.88;;;;;;;;;;5039697;28;20217;-87
2022/07/25 04:57:04;;;;;;;9.88;8.93;;;;;;;;;;5052491;28;20292;-86
2022/07/25 04:59:32;;;;;;;14.98;10.30;;;;;;;;;;5040361;28;20253;-84
2022/07/25 05:01:59;;;;;;;11.43;10.23;;;;;;;;;;5035396;28;20251;-84
2022/07/25 05:04:28;;;;;;;16.33;10.85;;;;;;;;;;5042557;28;20198;-84
2022/07/25 05:06:55;;;;;;;10.68;9.68;;;;;;;;;;5038229;28;20235;-83
2022/07/25 05:09:23;;;;;;;10.63;9.73;;;;;;;;;;5037005;28;20665;-84
2022/07/25 05:11:50;;;;;;;10.43;9.60;;;;;;;;;;5046569;28;20206;-83
2022/07/25 05:14:17;;;;;;;10.90;9.88;;;;;;;;;;5036390;28;20221;-83
2022/07/25 05:16:45;;;;;;;10.50;9.57;;;;;;;;;;5039002;28;20237;-83
2022/07/25 05:19:14;;;;;;;10.15;9.32;;;;;;;;;;5035316;28;20202;-85
2022/07/25 05:21:43;;;;;;;10.45;9.65;;;;;;;;;;5039532;28;20206;-83
2022/07/25 05:24:10;;;;;;;10.00;9.20;;;;;;;;;;5030183;28;20286;-83
2022/07/25 05:29:27;;;;;;;10.85;9.85;;;;;;;;;;5016070;28;20297;-87
2022/07/25 05:31:54;;;;;;;10.32;9.43;;;;;;;;;;5031040;28;20210;-85
2022/07/25 05:34:22;;;;;;;11.00;9.90;;;;;;;;;;5035903;28;20294;-84
2022/07/25 05:36:50;;;;;;;11.10;9.95;;;;;;;;;;5035013;28;20238;-83
2022/07/25 05:39:18;;;;;;;10.32;9.38;;;;;;;;;;5031819;28;20289;-83
2022/07/25 05:41:45;;;;;;;10.23;9.30;;;;;;;;;;5034404;28;20203;-83
2022/07/25 05:44:12;;;;;;;10.98;9.32;;;;;;;;;;5032200;28;20198;-83
2022/07/25 05:46:39;;;;;;;9.52;8.68;;;;;;;;;;5024971;28;20226;-83
2022/07/25 05:49:07;;;;;;;10.05;9.25;;;;;;;;;;5034757;28;20205;-83
2022/07/25 05:51:34;;;;;;;11.10;9.10;;;;;;;;;;5037848;28;20232;-84
2022/07/25 05:54:03;;;;;;;52.88;31.60;;;;;;;;;;5034390;28;21261;-83
2022/07/25 05:56:30;;;;;;;55.15;36.88;;;;;;;;;;5036391;28;20777;-83
2022/07/25 05:58:58;;;;;;;34.42;22.30;;;;;;;;;;5051012;28;20273;-83
2022/07/25 06:01:25;;;;;;;21.25;16.90;;;;;;;;;;5040734;28;20205;-83
2022/07/25 06:03:52;;;;;;;15.65;14.02;;;;;;;;;;5045693;28;20334;-84
2022/07/25 06:06:19;;;;;;;15.82;12.55;;;;;;;;;;5027993;28;20321;-84
2022/07/25 06:08:47;;;;;;;13.98;12.57;;;;;;;;;;5027548;28;20230;-84
2022/07/25 06:11:15;;;;;;;14.18;12.35;;;;;;;;;;5047314;28;20202;-84
2022/07/25 06:13:43;;;;;;;13.85;12.35;;;;;;;;;;5039120;28;20214;-84
2022/07/25 06:16:10;;;;;;;14.73;13.07;;;;;;;;;;5039374;28;20229;-83
2022/07/25 06:18:37;;;;;;;14.20;12.13;;;;;;;;;;5059689;28;20665;-83
2022/07/25 06:21:06;;;;;;;15.02;12.65;;;;;;;;;;5059712;28;20209;-84
2022/07/25 06:23:34;;;;;;;14.02;12.63;;;;;;;;;;5054984;28;20209;-83
2022/07/25 06:26:01;;;;;;;12.48;11.27;;;;;;;;;;5041103;28;20244;-84
2022/07/25 06:28:30;;;;;;;11.30;10.30;;;;;;;;;;5040606;28;20244;-84
2022/07/25 06:30:57;;;;;;;11.05;10.00;;;;;;;;;;5047675;28;20231;-83
2022/07/25 06:33:24;;;;;;;10.80;9.90;;;;;;;;;;5057144;28;20230;-84
2022/07/25 06:35:52;;;;;;;10.48;9.57;;;;;;;;;;5040198;28;20304;-82
2022/07/25 06:38:21;;;;;;;10.15;9.35;;;;;;;;;;5049198;28;20202;-84
2022/07/25 06:40:48;;;;;;;10.73;9.90;;;;;;;;;;5046982;28;20205;-83
2022/07/25 06:43:15;;;;;;;10.80;10.00;;;;;;;;;;5059323;28;20209;-83
2022/07/25 06:45:46;;;;;;;10.73;9.80;;;;;;;;;;5047500;28;20249;-84
2022/07/25 06:48:13;;;;;;;9.90;9.10;;;;;;;;;;5042264;28;20206;-84
2022/07/25 06:50:40;;;;;;;10.38;9.48;;;;;;;;;;5055817;28;20229;-84
2022/07/25 06:53:10;;;;;;;10.35;9.50;;;;;;;;;;5042279;28;20217;-83
2022/07/25 06:55:38;;;;;;;9.95;9.15;;;;;;;;;;5041025;28;20708;-83
2022/07/25 06:58:05;;;;;;;9.38;8.65;;;;;;;;;;5059733;28;20237;-83
2022/07/25 07:00:32;;;;;;;10.20;9.30;;;;;;;;;;5059353;28;20205;-85
2022/07/25 07:03:03;;;;;;;9.68;8.88;;;;;;;;;;5060110;28;20216;-84
2022/07/25 07:05:32;;;;;;;10.38;9.57;;;;;;;;;;5040555;28;20241;-84
2022/07/25 07:07:59;;;;;;;9.85;9.15;;;;;;;;;;5034806;28;20260;-84
2022/07/25 07:10:27;;;;;;;10.00;9.25;;;;;;;;;;5047626;28;20236;-84
2022/07/25 07:13:03;;;;;;;9.90;9.10;;;;;;;;;;5059950;28;20232;-84
2022/07/25 07:15:30;;;;;;;9.57;8.77;;;;;;;;;;5059396;28;20649;-84
2022/07/25 07:17:57;;;;;;;9.45;8.73;;;;;;;;;;5059055;28;20661;-84
2022/07/25 07:20:26;;;;;;;10.07;9.38;;;;;;;;;;5060753;28;20205;-85
2022/07/25 07:22:54;;;;;;;10.27;9.50;;;;;;;;;;5060784;28;20213;-84
2022/07/25 07:25:22;;;;;;;10.50;9.70;;;;;;;;;;5061353;28;20197;-83
2022/07/25 07:27:50;;;;;;;9.63;8.82;;;;;;;;;;5040834;28;20658;-83
2022/07/25 07:30:17;;;;;;;10.18;9.48;;;;;;;;;;5045591;28;20290;-85
2022/07/25 07:32:45;;;;;;;10.13;9.32;;;;;;;;;;5053864;28;20272;-84
2022/07/25 07:35:15;;;;;;;9.52;8.82;;;;;;;;;;5051774;28;20291;-84
2022/07/25 07:37:44;;;;;;;10.32;9.57;;;;;;;;;;5039808;28;20229;-84
2022/07/25 07:40:12;;;;;;;9.75;9.05;;;;;;;;;;5039586;28;20216;-83
2022/07/25 07:42:40;;;;;;;10.20;9.40;;;;;;;;;;5039772;28;20297;-84
2022/07/25 07:45:14;;;;;;;10.23;9.43;;;;;;;;;;5040580;28;20209;-84
2022/07/25 07:47:41;;;;;;;10.18;9.40;;;;;;;;;;5048937;28;20282;-84
2022/07/25 07:50:10;;;;;;;9.85;9.18;;;;;;;;;;5053613;28;20205;-84
2022/07/25 07:52:37;;;;;;;9.98;9.20;;;;;;;;;;5050836;28;20202;-84
2022/07/25 07:57:51;;;;;;;9.75;9.15;;;;;;;;;;5059664;28;20203;-84
2022/07/25 08:00:19;;;;;;;9.68;8.93;;;;;;;;;;5059082;28;20414;-84
2022/07/25 08:02:47;;;;;;;10.07;9.38;;;;;;;;;;5056120;28;20220;-84
2022/07/25 08:05:14;;;;;;;10.07;9.35;;;;;;;;;;5039904;28;20205;-84
2022/07/25 08:07:41;;;;;;;9.70;8.90;;;;;;;;;;5041363;28;20252;-84
2022/07/25 08:10:13;;;;;;;9.90;9.18;;;;;;;;;;5050914;28;20248;-84
2022/07/25 08:12:41;;;;;;;10.30;9.40;;;;;;;;;;5059353;28;20222;-84
2022/07/25 08:15:11;;;;;;;9.82;9.02;;;;;;;;;;5059420;28;20269;-84
2022/07/25 08:17:38;;;;;;;9.65;8.95;;;;;;;;;;5047228;28;20269;-84
2022/07/25 08:20:09;;;;;;;9.60;8.90;;;;;;;;;;5040157;28;20229;-84
2022/07/25 08:22:37;;;;;;;9.63;8.80;;;;;;;;;;5059197;28;20241;-84
2022/07/25 08:25:06;;;;;;;10.15;9.35;;;;;;;;;;5059657;28;20212;-84
2022/07/25 08:27:35;;;;;;;9.80;9.10;;;;;;;;;;5059209;28;20233;-84
2022/07/25 08:30:05;;;;;;;9.55;8.90;;;;;;;;;;5040573;28;20210;-82
2022/07/25 08:32:33;;;;;;;9.20;8.60;;;;;;;;;;5041958;28;20260;-84
2022/07/25 08:35:01;;;;;;;10.02;9.18;;;;;;;;;;5040355;28;20301;-84
2022/07/25 08:37:29;;;;;;;9.90;8.95;;;;;;;;;;5039496;28;20690;-84
2022/07/25 08:39:56;;;;;;;10.40;9.50;;;;;;;;;;5039806;28;20206;-84
2022/07/25 08:42:23;;;;;;;9.45;8.75;;;;;;;;;;5039105;28;20248;-83
2022/07/25 08:44:57;;;;;;;10.18;9.48;;;;;;;;;;5038881;28;20209;-84
2022/07/25 08:47:24;;;;;;;9.60;8.80;;;;;;;;;;5038727;28;20253;-84
2022/07/25 08:49:51;;;;;;;9.13;8.50;;;;;;;;;;5039246;28;20209;-84
2022/07/25 08:52:19;;;;;;;9.95;9.25;;;;;;;;;;5050914;28;20312;-84
2022/07/25 08:54:47;;;;;;;9.25;8.63;;;;;;;;;;5031948;28;20225;-84
2022/07/25 08:57:14;;;;;;;9.20;8.60;;;;;;;;;;5037035;28;20243;-83
2022/07/25 08:59:42;;;;;;;9.50;8.70;;;;;;;;;;5051069;28;20620;-83
2022/07/25 09:02:13;;;;;;;9.60;8.90;;;;;;;;;;5038560;28;20234;-84
2022/07/25 09:04:42;;;;;;;9.80;9.00;;;;;;;;;;5032874;28;20226;-84
2022/07/25 09:07:10;;;;;;;9.90;9.10;;;;;;;;;;5039105;28;20233;-82
2022/07/25 09:09:38;;;;;;;9.82;9.13;;;;;;;;;;5052559;28;20236;-83
2022/07/25 09:12:06;;;;;;;9.35;8.65;;;;;;;;;;5058185;28;20263;-84
2022/07/25 09:14:41;;;;;;;8.98;8.27;;;;;;;;;;5057789;28;20292;-83
2022/07/25 09:17:09;;;;;;;9.90;9.10;;;;;;;;;;5057824;28;20224;-82
2022/07/25 09:19:37;;;;;;;9.88;9.07;;;;;;;;;;5057567;28;20212;-83
2022/07/25 09:22:05;;;;;;;10.23;9.35;;;;;;;;;;5058394;28;20239;-84
2022/07/25 09:24:33;;;;;;;9.80;9.00;;;;;;;;;;5043186;28;20224;-83
2022/07/25 09:27:02;;;;;;;9.73;9.02;;;;;;;;;;5037761;28;20312;-83
2022/07/25 09:29:30;;;;;;;10.35;9.52;;;;;;;;;;5038926;28;20229;-84
2022/07/25 09:31:57;;;;;;;9.73;9.02;;;;;;;;;;5038129;28;20245;-84
2022/07/25 09:34:33;;;;;;;10.55;9.75;;;;;;;;;;5040466;28;20248;-83
2022/07/25 09:37:02;;;;;;;9.40;8.70;;;;;;;;;;5042312;28;20221;-84
2022/07/25 09:39:36;;;;;;;9.45;8.75;;;;;;;;;;5049654;28;20201;-83
2022/07/25 09:42:03;;;;;;;9.30;8.60;;;;;;;;;;5056942;28;20209;-84
2022/07/25 09:44:31;;;;;;;10.63;9.73;;;;;;;;;;5039161;28;20233;-83
2022/07/25 09:46:58;;;;;;;10.15;9.30;;;;;;;;;;5046749;28;20243;-83
2022/07/25 09:49:26;;;;;;;9.70;9.00;;;;;;;;;;5056549;28;20205;-84
2022/07/25 09:51:53;;;;;;;9.75;9.02;;;;;;;;;;5045427;28;20210;-83
2022/07/25 09:54:22;;;;;;;9.43;8.73;;;;;;;;;;5039739;28;20216;-84
2022/07/25 09:56:53;;;;;;;9.65;8.95;;;;;;;;;;5057084;28;20310;-83
2022/07/25 09:59:20;;;;;;;9.20;8.40;;;;;;;;;;5042832;28;20244;-84
2022/07/25 10:01:49;;;;;;;9.32;8.63;;;;;;;;;;5042389;28;20232;-83
2022/07/25 10:04:20;;;;;;;21.20;11.18;;;;;;;;;;5046069;28;20247;-84
2022/07/25 10:06:51;;;;;;;12.77;9.88;;;;;;;;;;5035589;28;20728;-86
2022/07/25 10:09:19;;;;;;;10.10;9.20;;;;;;;;;;5040458;28;20201;-89
2022/07/25 10:12:01;;;;;;;9.20;8.40;;;;;;;;;;5035644;28;20237;-89
2022/07/25 10:14:29;;;;;;;9.38;8.55;;;;;;;;;;5029410;28;20228;-88
2022/07/25 10:16:57;;;;;;;8.98;8.27;;;;;;;;;;5054754;28;20255;-89
2022/07/25 10:19:41;;;;;;;10.10;9.30;;;;;;;;;;5049277;28;20255;-88
2022/07/25 10:22:08;;;;;;;9.60;8.80;;;;;;;;;;5046155;28;20545;-88
2022/07/25 10:24:39;;;;;;;10.05;9.23;;;;;;;;;;5035997;28;20286;-88
2022/07/25 10:27:10;;;;;;;9.43;8.57;;;;;;;;;;5045113;28;20282;-88
2022/07/25 10:29:39;;;;;;;9.52;8.82;;;;;;;;;;5048461;28;20279;-87
2022/07/25 10:32:11;;;;;;;9.38;8.68;;;;;;;;;;5055563;28;20222;-88
2022/07/25 10:34:42;;;;;;;9.43;8.63;;;;;;;;;;5044637;28;20260;-88
2022/07/25 10:37:10;;;;;;;9.38;8.65;;;;;;;;;;5046209;28;20229;-86
2022/07/25 10:39:47;;;;;;;9.05;8.35;;;;;;;;;;5035783;28;20269;-88
2022/07/25 10:42:19;;;;;;;9.45;8.45;;;;;;;;;;5035374;28;20296;-87
2022/07/25 10:44:51;;;;;;;8.93;8.23;;;;;;;;;;5029144;28;20264;-88
2022/07/25 10:47:37;;;;;;;9.18;8.48;;;;;;;;;;5035659;28;20218;-89
2022/07/25 10:50:05;;;;;;;9.30;8.50;;;;;;;;;;5052027;28;20247;-88
2022/07/25 10:52:32;;;;;;;8.50;7.88;;;;;;;;;;5054637;28;20209;-89
2022/07/25 10:55:06;;;;;;;8.98;8.27;;;;;;;;;;5051697;28;20262;-88
2022/07/25 10:57:36;;;;;;;9.30;7.72;;;;;;;;;;5047940;28;20229;-86
2022/07/25 11:00:12;;;;;;;9.02;8.23;;;;;;;;;;5032498;28;20229;-86
2022/07/25 11:02:41;;;;;;;8.52;7.63;;;;;;;;;;5049447;28;20210;-88
2022/07/25 11:05:14;;;;;;;8.70;7.95;;;;;;;;;;5052512;28;20212;-86
2022/07/25 11:07:55;;;;;;;8.25;7.55;;;;;;;;;;5048118;28;20214;-87
2022/07/25 11:10:35;;;;;;;10.13;7.45;;;;;;;;;;5030348;28;20210;-85
2022/07/25 11:13:04;;;;;;;7.85;7.10;;;;;;;;;;5037735;28;20245;-87
2022/07/25 11:15:33;;;;;;;8.35;7.55;;;;;;;;;;5053754;28;20229;-87
2022/07/25 11:18:06;;;;;;;7.88;7.28;;;;;;;;;;5037648;28;20230;-86
2022/07/25 11:21:07;;;;;;;8.00;7.40;;;;;;;;;;5035222;28;20315;-86
2022/07/25 11:45:07;;;;;;;8.38;7.57;;;;;;;;;;4822806;29;20677;-90
2022/07/25 11:48:25;;;;;;;;;;;;;;;;;;;;;
2022/07/25 15:05:56;;;;;;;8.70;8.00;;;;;;;;;;5973639;22;21308;-85
2022/07/25 15:08:24;;;;;;;8.48;7.88;;;;;;;;;;5022857;28;20249;-86
2022/07/25 15:10:51;;;;;;;8.88;8.07;;;;;;;;;;5034041;28;20210;-86
2022/07/25 15:13:18;;;;;;;8.00;7.30;;;;;;;;;;5032613;28;20205;-85
2022/07/25 15:15:49;;;;;;;8.57;7.97;;;;;;;;;;5022753;28;20209;-86
2022/07/25 15:18:16;;;;;;;8.98;8.18;;;;;;;;;;4999286;28;20737;-86
2022/07/25 15:20:43;;;;;;;8.73;8.02;;;;;;;;;;4997494;28;20281;-84
2022/07/25 15:23:12;;;;;;;8.93;8.13;;;;;;;;;;5013136;28;20294;-86
2022/07/25 15:25:42;;;;;;;8.15;7.35;;;;;;;;;;4995182;28;20250;-88
2022/07/25 15:28:09;;;;;;;8.38;7.68;;;;;;;;;;5010303;28;20206;-88
2022/07/25 15:30:36;;;;;;;8.02;7.32;;;;;;;;;;5014142;28;20241;-85
2022/07/25 15:33:04;;;;;;;7.85;7.07;;;;;;;;;;5005752;28;20242;-87
2022/07/25 15:35:31;;;;;;;8.15;7.43;;;;;;;;;;5009737;28;20210;-86
2022/07/25 15:38:04;;;;;;;8.13;7.53;;;;;;;;;;5011031;28;20245;-85
2022/07/25 15:40:33;;;;;;;8.23;7.35;;;;;;;;;;5026355;28;20210;-86
2022/07/25 15:43:00;;;;;;;7.80;7.20;;;;;;;;;;5005090;28;20265;-86
2022/07/25 15:45:28;;;;;;;8.48;7.70;;;;;;;;;;5003528;28;20213;-85
2022/07/25 15:47:56;;;;;;;7.95;7.35;;;;;;;;;;5003900;28;20223;-85
2022/07/25 15:50:23;;;;;;;8.25;7.55;;;;;;;;;;5011498;28;20253;-86
2022/07/25 15:52:51;;;;;;;8.00;7.40;;;;;;;;;;4995493;28;20211;-85
2022/07/25 15:55:18;;;;;;;7.85;7.25;;;;;;;;;;4995239;28;20206;-85
2022/07/25 15:57:53;;;;;;;7.80;7.20;;;;;;;;;;4994902;28;20273;-85
2022/07/25 16:00:21;;;;;;;7.90;7.30;;;;;;;;;;4995744;28;20215;-85
2022/07/25 16:02:56;;;;;;;7.53;6.93;;;;;;;;;;5011267;28;20253;-84
2022/07/25 16:05:25;;;;;;;8.07;7.47;;;;;;;;;;5014120;28;20210;-85
2022/07/25 16:07:52;;;;;;;7.63;7.07;;;;;;;;;;5013563;28;20320;-86
2022/07/25 16:10:20;;;;;;;7.70;7.10;;;;;;;;;;5008652;28;20207;-85
2022/07/25 16:12:47;;;;;;;8.07;7.47;;;;;;;;;;4998845;28;20214;-86
2022/07/25 16:15:16;;;;;;;8.00;7.40;;;;;;;;;;5005091;28;20277;-86
2022/07/25 16:17:44;;;;;;;7.80;7.30;;;;;;;;;;4995553;28;20231;-86
2022/07/25 16:20:13;;;;;;;7.63;7.05;;;;;;;;;;4998645;28;20260;-86
2022/07/25 16:22:41;;;;;;;7.93;7.32;;;;;;;;;;5005493;28;20203;-85
2022/07/25 16:25:10;;;;;;;7.97;7.43;;;;;;;;;;5011595;28;20199;-85
2022/07/25 16:27:38;;;;;;;8.13;7.53;;;;;;;;;;5010605;28;20317;-85
2022/07/25 16:30:08;;;;;;;7.25;6.75;;;;;;;;;;5013807;28;20215;-85
2022/07/25 16:32:37;;;;;;;7.68;7.10;;;;;;;;;;5013991;28;20216;-85
2022/07/25 16:35:07;;;;;;;7.60;7.03;;;;;;;;;;5010329;28;20203;-84
2022/07/25 16:37:34;;;;;;;7.90;7.30;;;;;;;;;;5012430;28;20226;-84
2022/07/25 16:40:06;;;;;;;7.75;7.15;;;;;;;;;;5011608;28;20256;-85
2022/07/25 16:42:33;;;;;;;8.02;7.43;;;;;;;;;;5014278;28;20276;-85
2022/07/25 16:45:01;;;;;;;6.97;6.47;;;;;;;;;;5013734;28;20294;-85
2022/07/25 16:47:28;;;;;;;7.65;7.05;;;;;;;;;;5013175;28;20218;-85
2022/07/25 16:49:57;;;;;;;7.03;6.45;;;;;;;;;;5011218;28;20293;-86
2022/07/25 16:52:24;;;;;;;7.05;6.57;;;;;;;;;;5013828;28;20214;-85
2022/07/25 16:54:52;;;;;;;7.13;6.63;;;;;;;;;;5013358;28;20215;-85
2022/07/25 16:57:19;;;;;;;7.32;6.80;;;;;;;;;;5010555;28;20222;-85
2022/07/25 16:59:48;;;;;;;6.65;6.20;;;;;;;;;;5014095;28;20214;-84
2022/07/25 17:02:15;;;;;;;6.80;6.30;;;;;;;;;;5012948;28;20207;-85
2022/07/25 17:04:44;;;;;;;7.10;6.40;;;;;;;;;;5013081;28;20257;-85
2022/07/25 17:07:13;;;;;;;6.90;6.35;;;;;;;;;;5012263;28;20292;-84
2022/07/25 17:09:44;;;;;;;6.68;6.18;;;;;;;;;;5013006;28;20293;-87
2022/07/25 17:12:15;;;;;;;6.88;6.28;;;;;;;;;;5010859;28;20207;-86
2022/07/25 17:14:45;;;;;;;6.40;5.88;;;;;;;;;;5013024;28;20203;-86
2022/07/25 17:17:13;;;;;;;6.60;6.10;;;;;;;;;;5012698;28;20230;-86
2022/07/25 17:19:43;;;;;;;7.20;6.60;;;;;;;;;;5012782;28;20206;-87
2022/07/25 17:22:10;;;;;;;6.80;6.32;;;;;;;;;;5012828;28;20214;-87
2022/07/25 17:24:49;;;;;;;7.20;6.60;;;;;;;;;;4999797;28;20214;-87
2022/07/25 17:27:16;;;;;;;22.90;16.95;;;;;;;;;;5003535;28;20244;-86
2022/07/25 17:29:47;;;;;;;20.60;14.57;;;;;;;;;;5012746;28;20256;-87
2022/07/25 17:32:14;;;;;;;10.85;9.75;;;;;;;;;;5012757;28;20199;-85
2022/07/25 17:34:45;;;;;;;9.25;8.35;;;;;;;;;;5013244;28;20228;-86
2022/07/25 17:37:13;;;;;;;8.70;7.90;;;;;;;;;;5012935;28;20218;-86
2022/07/25 17:39:40;;;;;;;8.25;7.63;;;;;;;;;;5012784;28;20243;-87
2022/07/25 17:42:09;;;;;;;6.97;6.43;;;;;;;;;;5013163;28;20234;-86
2022/07/25 17:44:44;;;;;;;7.30;6.60;;;;;;;;;;5012752;28;20230;-86
2022/07/25 17:47:12;;;;;;;6.45;5.95;;;;;;;;;;5013010;28;20236;-86
2022/07/25 17:49:39;;;;;;;5.88;5.47;;;;;;;;;;5013188;28;20587;-86
2022/07/25 17:52:11;;;;;;;6.53;6.00;;;;;;;;;;5013100;28;20232;-86
2022/07/25 17:54:38;;;;;;;6.55;5.97;;;;;;;;;;5012712;28;20257;-86
2022/07/25 17:57:06;;;;;;;8.13;6.05;;;;;;;;;;5012594;28;20280;-86
2022/07/25 17:59:35;;;;;;;6.13;5.63;;;;;;;;;;5012454;28;20222;-86
2022/07/25 18:02:13;;;;;;;6.53;6.00;;;;;;;;;;4994723;28;20207;-86
2022/07/25 18:04:40;;;;;;;6.55;6.05;;;;;;;;;;4995697;28;20203;-86
2022/07/25 18:07:21;;;;;;;6.63;6.00;;;;;;;;;;5008635;28;20289;-86
2022/07/25 18:09:51;;;;;;;6.57;6.05;;;;;;;;;;5010575;28;20213;-86
2022/07/25 18:12:47;;;;;;;5.85;5.35;;;;;;;;;;5001854;28;20207;-87
2022/07/25 18:15:17;;;;;;;6.00;5.50;;;;;;;;;;5009013;28;20203;-86
2022/07/25 18:17:46;;;;;;;7.00;6.40;;;;;;;;;;5012044;28;20218;-87
2022/07/25 18:32:47;;;;;;;8.38;7.63;;;;;;;;;;4877492;29;20194;-87
2022/07/25 18:35:16;;;;;;;7.97;7.20;;;;;;;;;;4870901;29;20239;-86
2022/07/25 18:38:04;;;;;;;7.28;6.57;;;;;;;;;;4863418;29;20234;-88
2022/07/25 18:40:38;;;;;;;6.80;6.20;;;;;;;;;;4875024;29;20636;-86
2022/07/25 18:43:05;;;;;;;8.43;6.13;;;;;;;;;;4863072;29;20200;-87